createdAt,value
2019-02-07T00:00:27.717Z,65.81
2019-02-07T00:01:27.738Z,65.42
2019-02-07T00:02:27.696Z,65.32
2019-02-07T00:03:27.685Z,66.25
2019-02-07T00:04:27.672Z,65.01
2019-02-07T00:05:27.661Z,65.42
2019-02-07T00:06:27.683Z,66.15
2019-02-07T00:07:27.639Z,64.21
2019-02-07T00:08:27.640Z,65.45
2019-02-07T00:09:27.628Z,65.84
2019-02-07T00:10:27.607Z,64.80
2019-02-07T00:11:27.594Z,63.69
2019-02-07T00:12:27.610Z,64.73
2019-02-07T00:13:27.572Z,64.42
2019-02-07T00:14:27.597Z,64.11
2019-02-07T00:15:27.551Z,64.31
2019-02-07T00:16:27.539Z,64.21
2019-02-07T00:17:27.550Z,64.00
2019-02-07T00:18:27.520Z,64.42
2019-02-07T00:19:27.504Z,65.77
2019-02-07T00:20:27.503Z,65.77
2019-02-07T00:21:27.490Z,64.90
2019-02-07T00:22:27.498Z,64.07
2019-02-07T00:23:27.462Z,64.28
2019-02-07T00:24:27.455Z,63.48
2019-02-07T00:25:27.447Z,63.69
2019-02-07T00:26:27.437Z,64.73
2019-02-07T00:27:27.438Z,63.69
2019-02-07T00:28:27.405Z,62.97
2019-02-07T00:29:27.393Z,63.51
2019-02-07T00:30:27.383Z,63.72
2019-02-07T00:31:27.371Z,62.48
2019-02-07T00:32:27.402Z,63.62
2019-02-07T00:33:27.350Z,64.14
2019-02-07T00:34:27.338Z,64.76
2019-02-07T00:35:27.328Z,62.99
2019-02-07T00:36:27.316Z,64.86
2019-02-07T00:37:27.329Z,64.21
2019-02-07T00:38:27.313Z,63.72
2019-02-07T00:39:27.288Z,65.17
2019-02-07T00:40:27.274Z,65.25
2019-02-07T00:41:27.260Z,64.21
2019-02-07T00:42:27.276Z,63.79
2019-02-07T00:43:27.239Z,63.59
2019-02-07T00:44:27.239Z,62.79
2019-02-07T00:45:27.215Z,62.99
2019-02-07T00:46:27.205Z,64.45
2019-02-07T00:47:27.221Z,64.55
2019-02-07T00:48:27.184Z,63.72
2019-02-07T00:49:27.171Z,63.90
2019-02-07T00:50:27.178Z,64.14
2019-02-07T00:51:27.151Z,63.82
2019-02-07T00:52:27.175Z,63.90
2019-02-07T00:53:27.137Z,63.10
2019-02-07T00:54:27.116Z,64.65
2019-02-07T00:55:27.107Z,63.82
2019-02-07T00:56:27.127Z,64.03
2019-02-07T00:57:27.122Z,64.45
2019-02-07T00:58:27.074Z,64.34
2019-02-07T00:59:27.062Z,63.72
2019-02-07T01:00:27.049Z,63.31
2019-02-07T01:01:27.041Z,64.24
2019-02-07T01:02:27.049Z,64.34
2019-02-07T01:03:27.024Z,65.90
2019-02-07T01:04:27.016Z,64.14
2019-02-07T01:05:26.995Z,64.97
2019-02-07T01:06:26.982Z,64.97
2019-02-07T01:07:26.993Z,64.55
2019-02-07T01:08:26.959Z,62.89
2019-02-07T01:09:26.954Z,65.48
2019-02-07T01:10:26.950Z,64.42
2019-02-07T01:11:26.925Z,65.80
2019-02-07T01:12:26.936Z,64.83
2019-02-07T01:13:26.907Z,66.90
2019-02-07T01:14:26.892Z,64.42
2019-02-07T01:15:26.882Z,65.77
2019-02-07T01:16:26.878Z,63.90
2019-02-07T01:17:26.893Z,64.21
2019-02-07T01:18:26.849Z,63.62
2019-02-07T01:19:26.842Z,64.14
2019-02-07T01:20:26.830Z,64.97
2019-02-07T01:21:26.815Z,66.31
2019-02-07T01:22:26.815Z,66.08
2019-02-07T01:23:26.816Z,63.17
2019-02-07T01:24:26.783Z,65.87
2019-02-07T01:25:26.772Z,65.94
2019-02-07T01:26:26.759Z,63.87
2019-02-07T01:27:26.750Z,63.90
2019-02-07T01:28:26.776Z,64.21
2019-02-07T01:29:26.735Z,66.08
2019-02-07T01:30:26.715Z,64.83
2019-02-07T01:31:26.704Z,65.35
2019-02-07T01:32:26.692Z,65.56
2019-02-07T01:33:26.705Z,65.04
2019-02-07T01:34:26.680Z,66.83
2019-02-07T01:35:26.664Z,68.70
2019-02-07T01:36:26.649Z,68.38
2019-02-07T01:37:26.638Z,70.25
2019-02-07T01:38:26.649Z,69.53
2019-02-07T01:39:26.622Z,70.39
2019-02-07T01:40:26.622Z,73.36
2019-02-07T01:41:26.593Z,71.11
2019-02-07T01:42:26.584Z,73.18
2019-02-07T01:43:26.596Z,74.11
2019-02-07T01:44:26.561Z,75.57
2019-02-07T01:45:26.548Z,75.36
2019-02-07T01:46:26.553Z,75.02
2019-02-07T01:47:26.530Z,75.36
2019-02-07T01:48:26.538Z,75.57
2019-02-07T01:49:26.507Z,75.36
2019-02-07T01:50:26.497Z,74.22
2019-02-07T01:51:26.484Z,76.61
2019-02-07T01:52:26.494Z,76.40
2019-02-07T01:53:26.483Z,75.57
2019-02-07T01:54:26.450Z,74.15
2019-02-07T01:55:26.439Z,75.50
2019-02-07T01:56:26.428Z,75.50
2019-02-07T01:57:26.417Z,77.16
2019-02-07T01:58:26.436Z,77.78
2019-02-07T01:59:26.397Z,77.99
2019-02-07T02:00:26.383Z,78.65
2019-02-07T02:01:26.372Z,78.13
2019-02-07T02:02:26.361Z,78.72
2019-02-07T02:03:26.374Z,78.58
2019-02-07T02:04:26.347Z,78.47
2019-02-07T02:05:26.328Z,77.95
2019-02-07T02:06:26.319Z,77.02
2019-02-07T02:07:26.310Z,77.33
2019-02-07T02:08:26.322Z,78.68
2019-02-07T02:09:26.285Z,78.58
2019-02-07T02:10:26.287Z,76.29
2019-02-07T02:11:26.262Z,76.61
2019-02-07T02:12:26.271Z,77.54
2019-02-07T02:13:26.273Z,78.61
2019-02-07T02:14:26.230Z,78.27
2019-02-07T02:15:26.219Z,79.51
2019-02-07T02:16:26.215Z,77.85
2019-02-07T02:17:26.199Z,79.51
2019-02-07T02:18:26.193Z,76.40
2019-02-07T02:19:26.204Z,75.81
2019-02-07T02:20:26.164Z,77.68
2019-02-07T02:21:26.153Z,76.33
2019-02-07T02:22:26.148Z,78.41
2019-02-07T02:23:26.137Z,77.06
2019-02-07T02:24:26.157Z,78.51
2019-02-07T02:25:26.120Z,76.33
2019-02-07T02:26:26.101Z,78.51
2019-02-07T02:27:26.092Z,79.13
2019-02-07T02:28:26.081Z,78.51
2019-02-07T02:29:26.109Z,77.95
2019-02-07T02:30:26.059Z,78.61
2019-02-07T02:31:26.047Z,79.71
2019-02-07T02:32:26.034Z,78.16
2019-02-07T02:33:26.023Z,77.92
2019-02-07T02:34:26.034Z,77.23
2019-02-07T02:35:26.005Z,76.81
2019-02-07T02:36:25.992Z,76.40
2019-02-07T02:37:25.990Z,77.12
2019-02-07T02:38:25.990Z,76.81
2019-02-07T02:39:25.983Z,76.29
2019-02-07T02:40:25.949Z,77.68
2019-02-07T02:41:25.935Z,76.99
2019-02-07T02:42:25.928Z,78.75
2019-02-07T02:43:25.913Z,77.82
2019-02-07T02:44:25.937Z,80.00
2019-02-07T02:45:37.109Z,79.90
2019-02-07T02:46:26.882Z,79.38
2019-02-07T02:47:25.870Z,81.04
2019-02-07T02:48:25.860Z,80.52
2019-02-07T02:49:25.872Z,80.58
2019-02-07T02:50:25.854Z,80.16
2019-02-07T02:51:25.829Z,80.27
2019-02-07T02:52:25.815Z,79.38
2019-02-07T02:53:25.807Z,80.83
2019-02-07T02:54:25.815Z,80.31
2019-02-07T02:55:25.783Z,80.52
2019-02-07T02:56:25.780Z,79.96
2019-02-07T02:57:25.782Z,80.58
2019-02-07T02:58:25.751Z,79.92
2019-02-07T02:59:25.762Z,80.23
2019-02-07T03:00:25.729Z,80.33
2019-02-07T03:01:25.717Z,80.89
2019-02-07T03:02:25.708Z,80.58
2019-02-07T03:03:25.710Z,79.96
2019-02-07T03:04:25.714Z,78.30
2019-02-07T03:05:25.674Z,79.48
2019-02-07T03:06:25.663Z,79.69
2019-02-07T03:07:25.651Z,81.20
2019-02-07T03:08:25.644Z,79.58
2019-02-07T03:09:25.645Z,80.41
2019-02-07T03:10:25.644Z,80.83
2019-02-07T03:11:25.608Z,80.62
2019-02-07T03:12:25.600Z,82.01
2019-02-07T03:13:25.587Z,82.28
2019-02-07T03:14:25.578Z,80.45
2019-02-07T03:15:25.594Z,82.42
2019-02-07T03:16:25.555Z,82.11
2019-02-07T03:17:25.542Z,82.28
2019-02-07T03:18:25.535Z,81.35
2019-02-07T03:19:25.520Z,82.07
2019-02-07T03:20:25.535Z,83.01
2019-02-07T03:21:25.513Z,82.70
2019-02-07T03:22:25.488Z,82.45
2019-02-07T03:23:25.480Z,82.59
2019-02-07T03:24:25.466Z,81.97
2019-02-07T03:25:25.479Z,83.94
2019-02-07T03:26:25.445Z,83.38
2019-02-07T03:27:25.447Z,82.65
2019-02-07T03:28:25.422Z,82.45
2019-02-07T03:29:25.414Z,82.03
2019-02-07T03:30:25.450Z,81.41
2019-02-07T03:31:25.403Z,82.70
2019-02-07T03:32:25.397Z,83.22
2019-02-07T03:33:25.393Z,84.36
2019-02-07T03:34:25.364Z,82.70
2019-02-07T03:35:25.373Z,83.56
2019-02-07T03:36:25.334Z,84.08
2019-02-07T03:37:25.325Z,83.87
2019-02-07T03:38:25.313Z,84.81
2019-02-07T03:39:25.332Z,84.08
2019-02-07T03:40:25.324Z,84.08
2019-02-07T03:41:25.310Z,84.29
2019-02-07T03:42:25.270Z,84.95
2019-02-07T03:43:25.259Z,85.53
2019-02-07T03:44:25.311Z,84.70
2019-02-07T03:45:25.238Z,85.43
2019-02-07T03:46:25.259Z,85.02
2019-02-07T03:47:25.216Z,84.70
2019-02-07T03:48:25.207Z,83.98
2019-02-07T03:49:25.202Z,85.99
2019-02-07T03:50:25.187Z,84.91
2019-02-07T03:51:25.198Z,84.81
2019-02-07T03:52:25.179Z,84.22
2019-02-07T03:53:25.152Z,84.74
2019-02-07T03:54:25.147Z,85.05
2019-02-07T03:55:25.134Z,86.34
2019-02-07T03:56:25.142Z,85.05
2019-02-07T03:57:25.108Z,85.47
2019-02-07T03:58:25.099Z,84.47
2019-02-07T03:59:25.111Z,84.53
2019-02-07T04:00:25.076Z,85.99
2019-02-07T04:01:25.085Z,84.74
2019-02-07T04:02:25.059Z,84.95
2019-02-07T04:03:25.042Z,84.33
2019-02-07T04:04:25.032Z,84.22
2019-02-07T04:05:25.038Z,84.33
2019-02-07T04:06:25.042Z,84.33
2019-02-07T04:07:24.997Z,83.98
2019-02-07T04:08:24.987Z,84.19
2019-02-07T04:09:24.976Z,83.67
2019-02-07T04:10:24.968Z,83.87
2019-02-07T04:11:24.986Z,83.91
2019-02-07T04:12:24.942Z,84.01
2019-02-07T04:13:24.937Z,83.98
2019-02-07T04:14:24.922Z,82.01
2019-02-07T04:15:24.910Z,84.19
2019-02-07T04:16:24.936Z,83.87
2019-02-07T04:17:24.893Z,83.15
2019-02-07T04:18:24.915Z,83.04
2019-02-07T04:19:24.894Z,82.53
2019-02-07T04:20:24.864Z,82.11
2019-02-07T04:21:24.845Z,80.87
2019-02-07T04:22:24.857Z,82.11
2019-02-07T04:23:24.823Z,80.87
2019-02-07T04:24:24.831Z,81.18
2019-02-07T04:25:24.804Z,80.87
2019-02-07T04:26:24.794Z,80.76
2019-02-07T04:27:24.804Z,80.04
2019-02-07T04:28:24.769Z,82.42
2019-02-07T04:29:24.763Z,80.97
2019-02-07T04:30:24.758Z,80.66
2019-02-07T04:31:24.736Z,79.86
2019-02-07T04:32:24.748Z,80.66
2019-02-07T04:33:24.719Z,82.01
2019-02-07T04:34:24.709Z,81.63
2019-02-07T04:35:24.694Z,80.04
2019-02-07T04:36:24.699Z,80.04
2019-02-07T04:37:24.694Z,80.76
2019-02-07T04:38:24.660Z,82.01
2019-02-07T04:39:24.649Z,80.97
2019-02-07T04:40:24.644Z,82.53
2019-02-07T04:41:24.629Z,80.87
2019-02-07T04:42:24.677Z,80.97
2019-02-07T04:43:24.606Z,80.87
2019-02-07T04:44:24.676Z,81.07
2019-02-07T04:45:24.584Z,80.14
2019-02-07T04:46:27.187Z,80.76
2019-02-07T04:47:24.584Z,81.35
2019-02-07T04:48:24.568Z,80.21
2019-02-07T04:49:24.547Z,80.21
2019-02-07T04:50:24.532Z,81.14
2019-02-07T04:51:24.519Z,79.83
2019-02-07T04:52:24.530Z,80.18
2019-02-07T04:53:24.500Z,81.07
2019-02-07T04:54:24.490Z,79.93
2019-02-07T04:55:24.480Z,80.66
2019-02-07T04:56:24.464Z,80.52
2019-02-07T04:57:24.502Z,81.04
2019-02-07T04:58:24.444Z,80.55
2019-02-07T04:59:24.438Z,80.76
2019-02-07T05:00:24.424Z,80.97
2019-02-07T05:01:24.409Z,80.24
2019-02-07T05:02:24.421Z,80.35
2019-02-07T05:03:24.386Z,80.76
2019-02-07T05:04:24.375Z,82.11
2019-02-07T05:05:24.367Z,80.35
2019-02-07T05:06:24.371Z,79.72
2019-02-07T05:07:24.388Z,79.72
2019-02-07T05:08:24.348Z,80.87
2019-02-07T05:09:24.324Z,81.59
2019-02-07T05:10:24.314Z,81.90
2019-02-07T05:11:24.300Z,82.01
2019-02-07T05:12:24.322Z,80.55
2019-02-07T05:13:24.300Z,79.72
2019-02-07T05:14:24.268Z,81.07
2019-02-07T05:15:24.257Z,80.87
2019-02-07T05:16:24.250Z,80.35
2019-02-07T05:17:24.235Z,80.83
2019-02-07T05:18:24.279Z,81.07
2019-02-07T05:19:24.213Z,80.55
2019-02-07T05:20:24.209Z,82.07
2019-02-07T05:21:24.190Z,80.83
2019-02-07T05:22:24.186Z,80.31
2019-02-07T05:23:24.198Z,80.93
2019-02-07T05:24:24.177Z,80.93
2019-02-07T05:25:24.147Z,80.21
2019-02-07T05:26:24.152Z,80.93
2019-02-07T05:27:24.126Z,80.47
2019-02-07T05:28:24.139Z,79.38
2019-02-07T05:29:24.105Z,80.21
2019-02-07T05:30:24.100Z,80.37
2019-02-07T05:31:24.085Z,80.58
2019-02-07T05:32:24.073Z,80.23
2019-02-07T05:33:24.085Z,78.72
2019-02-07T05:34:24.050Z,78.72
2019-02-07T05:35:24.037Z,79.65
2019-02-07T05:36:24.033Z,78.82
2019-02-07T05:37:24.016Z,78.82
2019-02-07T05:38:24.030Z,79.55
2019-02-07T05:39:23.994Z,79.44
2019-02-07T05:40:23.990Z,80.33
2019-02-07T05:41:23.974Z,79.20
2019-02-07T05:42:23.993Z,78.68
2019-02-07T05:43:23.973Z,79.27
2019-02-07T05:44:23.939Z,78.96
2019-02-07T05:45:23.935Z,79.16
2019-02-07T05:46:23.918Z,78.47
2019-02-07T05:47:23.914Z,79.30
2019-02-07T05:48:23.940Z,79.78
2019-02-07T05:49:23.890Z,78.75
2019-02-07T05:50:23.877Z,77.95
2019-02-07T05:51:23.874Z,79.61
2019-02-07T05:52:23.860Z,79.92
2019-02-07T05:53:23.864Z,79.92
2019-02-07T05:54:23.836Z,80.71
2019-02-07T05:55:23.818Z,79.41
2019-02-07T05:56:23.813Z,79.88
2019-02-07T05:57:23.805Z,79.30
2019-02-07T05:58:23.809Z,79.51
2019-02-07T05:59:23.776Z,79.41
2019-02-07T06:00:23.787Z,80.65
2019-02-07T06:01:23.754Z,80.23
2019-02-07T06:02:23.744Z,80.09
2019-02-07T06:03:23.782Z,78.68
2019-02-07T06:04:23.961Z,79.16
2019-02-07T06:05:23.710Z,79.99
2019-02-07T06:06:23.703Z,78.47
2019-02-07T06:07:23.687Z,79.41
2019-02-07T06:08:23.677Z,79.41
2019-02-07T06:09:23.693Z,78.99
2019-02-07T06:10:23.653Z,79.61
2019-02-07T06:11:23.645Z,79.92
2019-02-07T06:12:23.659Z,80.23
2019-02-07T06:13:23.623Z,79.61
2019-02-07T06:14:23.633Z,79.99
2019-02-07T06:15:23.599Z,79.92
2019-02-07T06:16:23.594Z,79.88
2019-02-07T06:17:23.578Z,78.68
2019-02-07T06:18:23.596Z,78.89
2019-02-07T06:19:23.577Z,79.75
2019-02-07T06:20:23.544Z,80.79
2019-02-07T06:21:23.533Z,79.85
2019-02-07T06:22:23.529Z,80.99
2019-02-07T06:23:23.510Z,80.23
2019-02-07T06:24:23.545Z,80.58
2019-02-07T06:25:23.580Z,80.62
2019-02-07T06:26:23.490Z,81.41
2019-02-07T06:27:23.465Z,82.24
2019-02-07T06:28:23.455Z,80.79
2019-02-07T06:29:23.468Z,80.79
2019-02-07T06:30:23.440Z,81.27
2019-02-07T06:31:23.427Z,80.58
2019-02-07T06:32:23.413Z,80.58
2019-02-07T06:33:23.408Z,80.68
2019-02-07T06:34:29.060Z,81.41
2019-02-07T06:35:24.388Z,82.03
2019-02-07T06:36:23.375Z,82.03
2019-02-07T06:37:23.356Z,80.99
2019-02-07T06:38:23.357Z,82.55
2019-02-07T06:39:23.361Z,82.31
2019-02-07T06:40:23.322Z,81.58
2019-02-07T06:41:23.310Z,82.34
2019-02-07T06:42:23.317Z,81.79
2019-02-07T06:43:23.289Z,81.99
2019-02-07T06:44:23.329Z,81.79
2019-02-07T06:45:23.268Z,82.10
2019-02-07T06:46:23.257Z,81.93
2019-02-07T06:47:23.255Z,82.51
2019-02-07T06:48:23.245Z,82.31
2019-02-07T06:49:23.254Z,81.99
2019-02-07T06:50:23.215Z,81.99
2019-02-07T06:51:23.282Z,82.41
2019-02-07T06:52:23.188Z,82.72
2019-02-07T06:53:23.179Z,81.58
2019-02-07T06:54:23.235Z,82.72
2019-02-07T06:55:23.192Z,83.45
2019-02-07T06:56:23.146Z,84.03
2019-02-07T06:57:23.134Z,81.96
2019-02-07T06:58:23.121Z,81.96
2019-02-07T06:59:23.133Z,82.06
2019-02-07T07:00:23.123Z,82.13
2019-02-07T07:01:23.108Z,82.06
2019-02-07T07:02:23.079Z,81.85
2019-02-07T07:03:23.067Z,83.06
2019-02-07T07:04:23.075Z,81.96
2019-02-07T07:05:23.079Z,82.48
2019-02-07T07:06:23.039Z,82.58
2019-02-07T07:07:23.034Z,82.72
2019-02-07T07:08:23.018Z,83.20
2019-02-07T07:09:23.000Z,82.10
2019-02-07T07:10:23.146Z,84.28
2019-02-07T07:11:22.977Z,83.93
2019-02-07T07:12:23.103Z,84.13
2019-02-07T07:13:22.961Z,84.59
2019-02-07T07:14:22.951Z,84.55
2019-02-07T07:15:22.971Z,84.13
2019-02-07T07:16:22.968Z,84.80
2019-02-07T07:17:25.847Z,86.35
2019-02-07T07:18:22.955Z,85.94
2019-02-07T07:19:27.690Z,86.35
2019-02-07T07:20:24.105Z,86.76
2019-02-07T07:21:23.001Z,87.14
2019-02-07T07:22:23.257Z,86.52
2019-02-07T07:23:22.921Z,86.41
2019-02-07T07:24:22.896Z,86.58
2019-02-07T07:25:22.852Z,85.86
2019-02-07T07:26:22.826Z,86.27
2019-02-07T07:27:22.898Z,86.23
2019-02-07T07:28:22.792Z,85.09
2019-02-07T07:29:22.842Z,85.44
2019-02-07T07:30:22.796Z,85.86
2019-02-07T07:31:22.794Z,85.13
2019-02-07T07:32:22.781Z,86.33
2019-02-07T07:33:22.739Z,85.09
2019-02-07T07:34:22.726Z,85.61
2019-02-07T07:35:22.780Z,86.47
2019-02-07T07:36:22.726Z,86.17
2019-02-07T07:37:22.693Z,86.79
2019-02-07T07:38:22.681Z,86.37
2019-02-07T07:39:22.669Z,86.58
2019-02-07T07:40:22.690Z,87.10
2019-02-07T07:41:22.647Z,87.82
2019-02-07T07:42:22.664Z,87.72
2019-02-07T07:43:22.645Z,87.51
2019-02-07T07:44:22.613Z,87.62
2019-02-07T07:45:22.705Z,87.87
2019-02-07T07:46:22.605Z,88.45
2019-02-07T07:47:22.595Z,88.65
2019-02-07T07:48:22.573Z,88.24
2019-02-07T07:49:23.066Z,88.55
2019-02-07T07:50:22.551Z,89.48
2019-02-07T07:51:22.560Z,88.96
2019-02-07T07:52:22.542Z,89.07
2019-02-07T07:53:22.514Z,88.30
2019-02-07T07:54:22.551Z,88.24
2019-02-07T07:55:22.501Z,89.42
2019-02-07T07:56:22.650Z,89.28
2019-02-07T07:57:22.852Z,89.31
2019-02-07T07:58:22.712Z,89.89
2019-02-07T07:59:22.476Z,90.16
2019-02-07T08:00:22.459Z,89.23
2019-02-07T08:01:22.818Z,89.13
2019-02-07T08:02:22.464Z,89.54
2019-02-07T08:03:22.476Z,89.34
2019-02-07T08:04:22.654Z,89.03
2019-02-07T08:05:23.113Z,89.40
2019-02-07T08:06:22.580Z,89.13
2019-02-07T08:07:22.422Z,89.75
2019-02-07T08:08:22.416Z,89.23
2019-02-07T08:09:22.409Z,89.65
2019-02-07T08:10:22.325Z,90.23
2019-02-07T08:11:22.337Z,89.61
2019-02-07T08:12:22.303Z,90.23
2019-02-07T08:13:22.316Z,89.67
2019-02-07T08:14:22.302Z,89.71
2019-02-07T08:15:22.276Z,90.06
2019-02-07T08:16:22.298Z,90.47
2019-02-07T08:17:22.247Z,91.51
2019-02-07T08:18:22.239Z,90.78
2019-02-07T08:19:22.291Z,90.74
2019-02-07T08:20:22.212Z,90.02
2019-02-07T08:21:22.259Z,91.30
2019-02-07T08:22:22.191Z,90.37
2019-02-07T08:23:22.180Z,91.09
2019-02-07T08:24:22.305Z,90.84
2019-02-07T08:25:22.158Z,91.05
2019-02-07T08:26:22.172Z,89.92
2019-02-07T08:27:22.138Z,90.64
2019-02-07T08:28:22.123Z,91.26
2019-02-07T08:29:22.125Z,90.33
2019-02-07T08:30:22.102Z,90.23
2019-02-07T08:31:23.193Z,90.12
2019-02-07T08:32:22.185Z,90.02
2019-02-07T08:33:22.454Z,90.64
2019-02-07T08:34:22.055Z,90.33
2019-02-07T08:35:22.214Z,91.47
2019-02-07T08:36:22.178Z,90.23
2019-02-07T08:37:22.034Z,91.26
2019-02-07T08:38:22.025Z,90.74
2019-02-07T08:39:22.003Z,90.95
2019-02-07T08:40:21.999Z,90.84
2019-02-07T08:41:22.006Z,90.53
2019-02-07T08:42:21.967Z,90.23
2019-02-07T08:43:21.968Z,90.23
2019-02-07T08:44:21.946Z,90.53
2019-02-07T08:45:22.004Z,90.44
2019-02-07T08:46:21.943Z,90.50
2019-02-07T08:47:21.958Z,90.19
2019-02-07T08:48:21.934Z,90.50
2019-02-07T08:49:21.896Z,89.62
2019-02-07T08:50:24.394Z,89.11
2019-02-07T08:51:21.872Z,88.59
2019-02-07T08:52:21.877Z,89.22
2019-02-07T08:53:21.857Z,89.36
2019-02-07T08:54:21.838Z,89.98
2019-02-07T08:55:22.102Z,90.08
2019-02-07T08:56:21.813Z,90.50
2019-02-07T08:57:21.958Z,90.08
2019-02-07T08:58:21.824Z,90.50
2019-02-07T08:59:21.811Z,90.39
2019-02-07T09:00:21.778Z,90.08
2019-02-07T09:01:21.758Z,91.42
2019-02-07T09:02:21.788Z,89.94
2019-02-07T09:03:21.745Z,89.94
2019-02-07T09:04:21.729Z,89.98
2019-02-07T09:05:21.715Z,90.39
2019-02-07T09:06:21.700Z,91.42
2019-02-07T09:07:21.808Z,91.01
2019-02-07T09:08:21.678Z,91.11
2019-02-07T09:09:22.057Z,90.97
2019-02-07T09:10:21.683Z,90.66
2019-02-07T09:11:21.645Z,90.25
2019-02-07T09:12:21.665Z,90.91
2019-02-07T09:13:21.625Z,91.94
2019-02-07T09:14:21.626Z,91.07
2019-02-07T09:15:21.615Z,91.17
2019-02-07T09:16:21.609Z,91.01
2019-02-07T09:17:21.634Z,91.11
2019-02-07T09:18:21.590Z,91.84
2019-02-07T09:19:21.573Z,91.22
2019-02-07T09:20:21.551Z,91.22
2019-02-07T09:21:21.537Z,90.91
2019-02-07T09:22:23.783Z,90.91
2019-02-07T09:23:21.567Z,90.97
2019-02-07T09:24:21.624Z,91.17
2019-02-07T09:25:21.497Z,90.97
2019-02-07T09:26:21.481Z,90.25
2019-02-07T09:27:21.504Z,91.17
2019-02-07T09:28:21.456Z,91.17
2019-02-07T09:29:21.450Z,90.04
2019-02-07T09:30:21.445Z,91.28
2019-02-07T09:31:21.432Z,91.07
2019-02-07T09:32:21.436Z,91.17
2019-02-07T09:33:21.415Z,90.35
2019-02-07T09:34:21.440Z,89.94
2019-02-07T09:35:23.512Z,90.41
2019-02-07T09:36:21.399Z,89.69
2019-02-07T09:37:21.447Z,89.89
2019-02-07T09:38:21.387Z,89.89
2019-02-07T09:39:21.334Z,90.10
2019-02-07T09:40:21.328Z,89.89
2019-02-07T09:41:21.386Z,89.59
2019-02-07T09:42:21.338Z,89.59
2019-02-07T09:43:21.298Z,90.20
2019-02-07T09:44:21.402Z,90.45
2019-02-07T09:45:21.269Z,90.14
2019-02-07T09:46:21.261Z,90.25
2019-02-07T09:47:21.245Z,91.07
2019-02-07T09:48:21.978Z,90.66
2019-02-07T09:49:21.245Z,91.38
2019-02-07T09:50:21.234Z,90.56
2019-02-07T09:51:21.220Z,91.28
2019-02-07T09:52:21.202Z,90.35
2019-02-07T09:53:24.136Z,90.00
2019-02-07T09:54:21.187Z,90.31
2019-02-07T09:55:21.183Z,90.41
2019-02-07T09:56:21.156Z,90.52
2019-02-07T09:57:21.171Z,90.52
2019-02-07T09:58:21.150Z,91.55
2019-02-07T09:59:21.120Z,89.86
2019-02-07T10:00:21.103Z,91.20
2019-02-07T10:01:21.287Z,91.30
2019-02-07T10:02:21.110Z,90.37
2019-02-07T10:03:21.150Z,89.81
2019-02-07T10:04:21.063Z,89.81
2019-02-07T10:05:21.049Z,89.92
2019-02-07T10:06:21.041Z,88.78
2019-02-07T10:07:21.044Z,90.08
2019-02-07T10:08:21.114Z,88.74
2019-02-07T10:09:21.007Z,88.95
2019-02-07T10:10:20.995Z,88.02
2019-02-07T10:11:20.982Z,88.90
2019-02-07T10:12:20.975Z,88.18
2019-02-07T10:13:21.010Z,88.18
2019-02-07T10:14:21.011Z,88.29
2019-02-07T10:15:21.058Z,87.56
2019-02-07T10:16:20.946Z,88.53
2019-02-07T10:17:20.917Z,88.64
2019-02-07T10:18:20.977Z,89.11
2019-02-07T10:19:20.901Z,88.86
2019-02-07T10:20:20.914Z,88.65
2019-02-07T10:21:20.872Z,87.93
2019-02-07T10:22:20.859Z,87.63
2019-02-07T10:23:20.891Z,87.73
2019-02-07T10:24:20.917Z,88.08
2019-02-07T10:25:20.826Z,88.96
2019-02-07T10:26:20.844Z,87.52
2019-02-07T10:27:20.814Z,87.48
2019-02-07T10:28:20.837Z,86.87
2019-02-07T10:29:20.784Z,86.00
2019-02-07T10:30:20.773Z,85.96
2019-02-07T10:31:20.763Z,84.62
2019-02-07T10:32:20.749Z,84.14
2019-02-07T10:33:20.780Z,85.38
2019-02-07T10:34:20.733Z,85.65
2019-02-07T10:35:22.768Z,84.21
2019-02-07T10:36:20.705Z,84.11
2019-02-07T10:37:20.691Z,83.94
2019-02-07T10:38:20.767Z,84.05
2019-02-07T10:39:20.698Z,84.45
2019-02-07T10:40:20.679Z,84.05
2019-02-07T10:41:20.660Z,83.80
2019-02-07T10:42:20.636Z,84.23
2019-02-07T10:43:20.628Z,83.41
2019-02-07T10:44:20.641Z,81.32
2019-02-07T10:45:20.607Z,79.80
2019-02-07T10:46:21.569Z,79.19
2019-02-07T10:47:20.604Z,78.98
2019-02-07T10:48:20.570Z,79.94
2019-02-07T10:49:20.591Z,79.33
2019-02-07T10:50:20.548Z,79.33
2019-02-07T10:51:20.538Z,78.61
2019-02-07T10:52:20.531Z,79.33
2019-02-07T10:53:20.557Z,78.92
2019-02-07T10:54:20.529Z,78.92
2019-02-07T10:55:20.496Z,79.26
2019-02-07T10:56:20.482Z,78.57
2019-02-07T10:57:20.473Z,77.85
2019-02-07T10:58:20.472Z,78.47
2019-02-07T10:59:20.493Z,77.78
2019-02-07T11:00:20.470Z,78.40
2019-02-07T11:01:20.437Z,77.75
2019-02-07T11:02:20.430Z,77.82
2019-02-07T11:03:20.423Z,77.92
2019-02-07T11:04:20.426Z,78.54
2019-02-07T11:05:20.425Z,78.85
2019-02-07T11:06:20.759Z,78.54
2019-02-07T11:07:20.522Z,79.16
2019-02-07T11:08:20.354Z,79.16
2019-02-07T11:09:20.540Z,79.23
2019-02-07T11:10:20.360Z,80.53
2019-02-07T11:11:20.324Z,80.53
2019-02-07T11:12:20.312Z,79.36
2019-02-07T11:13:20.328Z,79.40
2019-02-07T11:14:20.308Z,79.09
2019-02-07T11:15:20.282Z,79.19
2019-02-07T11:16:20.277Z,78.92
2019-02-07T11:17:20.251Z,79.19
2019-02-07T11:18:20.251Z,78.47
2019-02-07T11:19:21.622Z,78.37
2019-02-07T11:20:20.213Z,78.58
2019-02-07T11:21:20.202Z,77.86
2019-02-07T11:22:22.884Z,77.92
2019-02-07T11:23:20.232Z,78.13
2019-02-07T11:24:20.258Z,76.86
2019-02-07T11:25:20.158Z,76.90
2019-02-07T11:26:20.153Z,76.25
2019-02-07T11:27:20.135Z,76.76
2019-02-07T11:28:20.122Z,75.25
2019-02-07T11:29:20.165Z,75.52
2019-02-07T11:30:20.100Z,75.38
2019-02-07T11:31:20.088Z,74.98
2019-02-07T11:32:20.078Z,74.77
2019-02-07T11:33:20.068Z,74.94
2019-02-07T11:34:20.058Z,74.08
2019-02-07T11:35:20.076Z,72.68
2019-02-07T11:36:20.098Z,72.38
2019-02-07T11:37:20.021Z,72.38
2019-02-07T11:38:20.010Z,72.68
2019-02-07T11:39:20.001Z,71.97
2019-02-07T11:40:20.031Z,71.42
2019-02-07T11:41:19.985Z,72.27
2019-02-07T11:42:19.982Z,71.25
2019-02-07T11:43:19.955Z,71.69
2019-02-07T11:44:19.947Z,72.92
2019-02-07T11:45:19.957Z,72.72
2019-02-07T11:46:19.920Z,72.72
2019-02-07T11:47:19.916Z,71.25
2019-02-07T11:48:19.906Z,71.39
2019-02-07T11:49:19.887Z,71.21
2019-02-07T11:50:19.911Z,72.65
2019-02-07T11:51:19.866Z,72.72
2019-02-07T11:52:19.948Z,71.28
2019-02-07T11:53:19.849Z,72.38
2019-02-07T11:54:19.836Z,70.81
2019-02-07T11:55:19.858Z,70.81
2019-02-07T11:56:19.812Z,71.25
2019-02-07T11:57:19.849Z,71.04
2019-02-07T11:58:19.790Z,72.20
2019-02-07T11:59:19.785Z,72.61
2019-02-07T12:00:19.807Z,72.61
2019-02-07T12:01:19.762Z,71.49
2019-02-07T12:02:19.749Z,69.41
2019-02-07T12:03:19.842Z,69.10
2019-02-07T12:04:19.749Z,68.79
2019-02-07T12:05:19.739Z,67.91
2019-02-07T12:06:19.727Z,66.90
2019-02-07T12:07:19.689Z,64.96
2019-02-07T12:08:19.677Z,65.06
2019-02-07T12:09:19.705Z,64.58
2019-02-07T12:10:19.683Z,65.49
2019-02-07T12:11:19.648Z,67.60
2019-02-07T12:12:19.641Z,68.18
2019-02-07T12:13:19.625Z,67.54
2019-02-07T12:14:19.615Z,67.60
2019-02-07T12:15:19.629Z,68.11
2019-02-07T12:16:19.682Z,68.59
2019-02-07T12:17:19.595Z,67.57
2019-02-07T12:18:19.570Z,67.97
2019-02-07T12:19:19.556Z,67.05
2019-02-07T12:20:19.580Z,67.05
2019-02-07T12:21:19.535Z,67.19
2019-02-07T12:22:19.535Z,65.86
2019-02-07T12:23:19.562Z,66.27
2019-02-07T12:24:19.503Z,65.01
2019-02-07T12:25:19.492Z,65.72
2019-02-07T12:26:19.505Z,65.14
2019-02-07T12:27:19.468Z,65.75
2019-02-07T12:28:19.465Z,66.88
2019-02-07T12:29:19.509Z,65.89
2019-02-07T12:30:19.436Z,65.78
2019-02-07T12:31:19.453Z,65.58
2019-02-07T12:32:19.414Z,65.48
2019-02-07T12:33:19.421Z,64.14
2019-02-07T12:34:19.395Z,63.81
2019-02-07T12:35:19.384Z,63.81
2019-02-07T12:36:19.393Z,63.91
2019-02-07T12:37:19.399Z,64.01
2019-02-07T12:38:19.349Z,63.81
2019-02-07T12:39:19.340Z,62.88
2019-02-07T12:40:19.329Z,63.29
2019-02-07T12:41:19.338Z,63.81
2019-02-07T12:42:19.306Z,62.78
2019-02-07T12:43:19.297Z,63.15
2019-02-07T12:44:19.289Z,63.84
2019-02-07T12:45:19.270Z,62.78
2019-02-07T12:46:19.289Z,63.68
2019-02-07T12:47:19.258Z,62.96
2019-02-07T12:48:19.254Z,62.21
2019-02-07T12:49:28.998Z,61.91
2019-02-07T12:50:20.221Z,61.80
2019-02-07T12:51:19.245Z,62.83
2019-02-07T12:52:19.204Z,63.17